sensor_id;sensor_type;location;lat;lon;timestamp;temperature;humidity
56436;DHT22;42335;44.872;20.658;2023-06-10T00:00:34;512.40;2380.80
56436;DHT22;42335;44.872;20.658;2023-06-10T00:03:00;512.40;2380.80
56436;DHT22;42335;44.872;20.658;2023-06-10T00:05:27;512.50;2380.80
56436;DHT22;42335;44.872;20.658;2023-06-10T00:07:55;512.50;2380.80
56436;DHT22;42335;44.872;20.658;2023-06-10T00:10:22;512.20;2380.80
56436;DHT22;42335;44.872;20.658;2023-06-10T00:12:47;512.20;2380.80
56436;DHT22;42335;44.872;20.658;2023-06-10T00:15:14;512.20;2380.80
56436;DHT22;42335;44.872;20.658;2023-06-10T00:17:40;512.30;2380.80
56436;DHT22;42335;44.872;20.658;2023-06-10T00:20:09;512.20;2380.80
56436;DHT22;42335;44.872;20.658;2023-06-10T00:22:37;512.20;2380.80
56436;DHT22;42335;44.872;20.658;2023-06-10T00:27:31;512.50;2380.80
56436;DHT22;42335;44.872;20.658;2023-06-10T00:30:04;512.20;2380.80
56436;DHT22;42335;44.872;20.658;2023-06-10T00:32:32;512.10;2380.80
56436;DHT22;42335;44.872;20.658;2023-06-10T00:34:58;487.30;2380.80
56436;DHT22;42335;44.872;20.658;2023-06-10T00:37:23;487.30;2380.80
56436;DHT22;42335;44.872;20.658;2023-06-10T00:39:49;487.10;2380.80
56436;DHT22;42335;44.872;20.658;2023-06-10T00:42:15;487.20;2380.80
56436;DHT22;42335;44.872;20.658;2023-06-10T00:44:41;487.20;2380.80
56436;DHT22;42335;44.872;20.658;2023-06-10T00:47:07;487.10;2380.80
56436;DHT22;42335;44.872;20.658;2023-06-10T00:49:33;487.10;2380.80
56436;DHT22;42335;44.872;20.658;2023-06-10T00:52:00;487.20;2380.80
56436;DHT22;42335;44.872;20.658;2023-06-10T00:54:26;487.20;2380.80
56436;DHT22;42335;44.872;20.658;2023-06-10T00:56:53;487.20;2380.80
56436;DHT22;42335;44.872;20.658;2023-06-10T00:59:19;487.30;2380.80
56436;DHT22;42335;44.872;20.658;2023-06-10T01:01:46;487.30;2380.80
56436;DHT22;42335;44.872;20.658;2023-06-10T01:04:15;487.30;2380.80
56436;DHT22;42335;44.872;20.658;2023-06-10T01:06:57;487.30;2380.80
56436;DHT22;42335;44.872;20.658;2023-06-10T01:09:32;487.30;2380.80
56436;DHT22;42335;44.872;20.658;2023-06-10T01:14:41;487.30;2380.80
56436;DHT22;42335;44.872;20.658;2023-06-10T01:17:10;487.10;2380.80
56436;DHT22;42335;44.872;20.658;2023-06-10T01:19:37;487.00;2380.80
56436;DHT22;42335;44.872;20.658;2023-06-10T01:22:03;486.90;2380.80
56436;DHT22;42335;44.872;20.658;2023-06-10T01:24:29;487.00;2380.80
56436;DHT22;42335;44.872;20.658;2023-06-10T01:27:00;487.10;2380.80
56436;DHT22;42335;44.872;20.658;2023-06-10T01:29:33;487.00;2380.80
56436;DHT22;42335;44.872;20.658;2023-06-10T01:32:17;487.10;2380.80
56436;DHT22;42335;44.872;20.658;2023-06-10T01:34:45;487.10;2380.80
56436;DHT22;42335;44.872;20.658;2023-06-10T01:37:13;487.10;2380.80
56436;DHT22;42335;44.872;20.658;2023-06-10T01:39:42;487.10;2380.80
56436;DHT22;42335;44.872;20.658;2023-06-10T01:42:09;487.20;2380.80
56436;DHT22;42335;44.872;20.658;2023-06-10T01:44:35;487.10;2380.80
56436;DHT22;42335;44.872;20.658;2023-06-10T01:47:01;487.20;2380.80
56436;DHT22;42335;44.872;20.658;2023-06-10T01:49:27;487.10;2380.80
56436;DHT22;42335;44.872;20.658;2023-06-10T01:51:54;487.10;2380.80
56436;DHT22;42335;44.872;20.658;2023-06-10T01:54:19;487.10;2380.80
56436;DHT22;42335;44.872;20.658;2023-06-10T01:56:45;487.10;2380.80
56436;DHT22;42335;44.872;20.658;2023-06-10T01:59:11;487.10;2380.80
56436;DHT22;42335;44.872;20.658;2023-06-10T02:01:36;487.10;2380.80
56436;DHT22;42335;44.872;20.658;2023-06-10T02:04:02;487.00;2380.80
56436;DHT22;42335;44.872;20.658;2023-06-10T02:06:28;486.90;2380.80
56436;DHT22;42335;44.872;20.658;2023-06-10T02:08:53;486.90;2380.80
56436;DHT22;42335;44.872;20.658;2023-06-10T02:11:19;486.90;2380.80
56436;DHT22;42335;44.872;20.658;2023-06-10T02:13:45;487.00;2380.80
56436;DHT22;42335;44.872;20.658;2023-06-10T02:16:10;487.00;2380.80
56436;DHT22;42335;44.872;20.658;2023-06-10T02:18:38;487.00;2380.80
56436;DHT22;42335;44.872;20.658;2023-06-10T02:21:06;487.00;2380.80
56436;DHT22;42335;44.872;20.658;2023-06-10T02:23:32;487.00;2380.80
56436;DHT22;42335;44.872;20.658;2023-06-10T02:25:58;486.90;2380.80
56436;DHT22;42335;44.872;20.658;2023-06-10T02:28:23;486.90;2380.80
56436;DHT22;42335;44.872;20.658;2023-06-10T02:33:15;486.70;2380.80
56436;DHT22;42335;44.872;20.658;2023-06-10T02:35:42;486.60;2380.80
56436;DHT22;42335;44.872;20.658;2023-06-10T02:38:08;486.70;2380.80
56436;DHT22;42335;44.872;20.658;2023-06-10T02:40:34;486.70;2380.80
56436;DHT22;42335;44.872;20.658;2023-06-10T02:43:00;486.70;2380.80
56436;DHT22;42335;44.872;20.658;2023-06-10T02:45:25;486.80;2380.80
56436;DHT22;42335;44.872;20.658;2023-06-10T02:47:51;486.70;2380.80
56436;DHT22;42335;44.872;20.658;2023-06-10T02:50:17;486.70;2380.80
56436;DHT22;42335;44.872;20.658;2023-06-10T02:52:43;486.70;2380.80
56436;DHT22;42335;44.872;20.658;2023-06-10T02:55:09;486.70;2380.80
56436;DHT22;42335;44.872;20.658;2023-06-10T02:57:35;486.70;2380.80
56436;DHT22;42335;44.872;20.658;2023-06-10T03:00:01;486.70;2380.80
56436;DHT22;42335;44.872;20.658;2023-06-10T03:02:28;486.70;2380.80
56436;DHT22;42335;44.872;20.658;2023-06-10T03:04:57;486.50;2380.80
56436;DHT22;42335;44.872;20.658;2023-06-10T03:07:23;461.70;2380.80
56436;DHT22;42335;44.872;20.658;2023-06-10T03:09:50;461.70;2380.80
56436;DHT22;42335;44.872;20.658;2023-06-10T03:12:15;461.70;2380.80
56436;DHT22;42335;44.872;20.658;2023-06-10T03:14:41;486.40;2380.80
56436;DHT22;42335;44.872;20.658;2023-06-10T03:17:07;486.50;2380.80
56436;DHT22;42335;44.872;20.658;2023-06-10T03:19:34;486.50;2380.80
56436;DHT22;42335;44.872;20.658;2023-06-10T03:22:13;486.60;2380.80
56436;DHT22;42335;44.872;20.658;2023-06-10T03:24:40;486.50;2380.80
56436;DHT22;42335;44.872;20.658;2023-06-10T03:27:09;486.60;2380.80
56436;DHT22;42335;44.872;20.658;2023-06-10T03:29:35;486.50;2380.80
56436;DHT22;42335;44.872;20.658;2023-06-10T03:32:01;486.50;2380.80
56436;DHT22;42335;44.872;20.658;2023-06-10T03:34:27;486.50;2380.80
56436;DHT22;42335;44.872;20.658;2023-06-10T03:36:53;486.50;2380.80
56436;DHT22;42335;44.872;20.658;2023-06-10T03:39:18;486.50;2380.80
56436;DHT22;42335;44.872;20.658;2023-06-10T03:41:45;486.40;2380.80
56436;DHT22;42335;44.872;20.658;2023-06-10T03:44:10;486.40;2380.80
56436;DHT22;42335;44.872;20.658;2023-06-10T03:46:36;461.70;2380.80
56436;DHT22;42335;44.872;20.658;2023-06-10T03:49:02;486.40;2380.80
56436;DHT22;42335;44.872;20.658;2023-06-10T03:51:29;486.50;2380.80
56436;DHT22;42335;44.872;20.658;2023-06-10T03:53:54;486.50;2380.80
56436;DHT22;42335;44.872;20.658;2023-06-10T03:56:20;486.60;2380.80
56436;DHT22;42335;44.872;20.658;2023-06-10T03:58:46;486.70;2380.80
56436;DHT22;42335;44.872;20.658;2023-06-10T04:01:11;486.70;2380.80
56436;DHT22;42335;44.872;20.658;2023-06-10T04:03:38;486.80;2380.80
56436;DHT22;42335;44.872;20.658;2023-06-10T04:06:05;486.80;2380.80
56436;DHT22;42335;44.872;20.658;2023-06-10T04:08:30;486.90;2380.80
56436;DHT22;42335;44.872;20.658;2023-06-10T04:10:58;487.00;2380.80
56436;DHT22;42335;44.872;20.658;2023-06-10T04:13:24;487.00;2380.80
56436;DHT22;42335;44.872;20.658;2023-06-10T04:15:49;486.90;2380.80
56436;DHT22;42335;44.872;20.658;2023-06-10T04:18:16;487.00;2380.80
56436;DHT22;42335;44.872;20.658;2023-06-10T04:20:42;487.10;2380.80
56436;DHT22;42335;44.872;20.658;2023-06-10T04:23:07;487.20;2380.80
56436;DHT22;42335;44.872;20.658;2023-06-10T04:25:33;487.00;2380.80
56436;DHT22;42335;44.872;20.658;2023-06-10T04:27:59;487.10;2380.80
56436;DHT22;42335;44.872;20.658;2023-06-10T04:30:28;487.20;2380.80
56436;DHT22;42335;44.872;20.658;2023-06-10T04:32:53;512.00;2380.80
56436;DHT22;42335;44.872;20.658;2023-06-10T04:35:19;512.10;2380.80
56436;DHT22;42335;44.872;20.658;2023-06-10T04:37:45;512.20;2380.80
56436;DHT22;42335;44.872;20.658;2023-06-10T04:40:11;512.40;2380.80
56436;DHT22;42335;44.872;20.658;2023-06-10T04:42:37;512.50;2380.80
56436;DHT22;42335;44.872;20.658;2023-06-10T04:45:02;512.40;2380.80
56436;DHT22;42335;44.872;20.658;2023-06-10T04:47:29;512.40;2380.80
56436;DHT22;42335;44.872;20.658;2023-06-10T04:49:59;512.50;2380.80
56436;DHT22;42335;44.872;20.658;2023-06-10T04:52:24;512.50;2380.80
56436;DHT22;42335;44.872;20.658;2023-06-10T04:54:50;512.40;2380.80
56436;DHT22;42335;44.872;20.658;2023-06-10T04:57:15;512.60;2380.80
56436;DHT22;42335;44.872;20.658;2023-06-10T04:59:41;512.90;2380.80
56436;DHT22;42335;44.872;20.658;2023-06-10T05:02:07;512.90;2380.80
56436;DHT22;42335;44.872;20.658;2023-06-10T05:04:32;512.90;2380.80
56436;DHT22;42335;44.872;20.658;2023-06-10T05:06:58;537.60;2406.40
56436;DHT22;42335;44.872;20.658;2023-06-10T05:09:24;537.60;2406.40
56436;DHT22;42335;44.872;20.658;2023-06-10T05:11:51;537.70;2406.40
56436;DHT22;42335;44.872;20.658;2023-06-10T05:14:19;537.70;2406.40
56436;DHT22;42335;44.872;20.658;2023-06-10T05:16:46;538.00;2406.40
56436;DHT22;42335;44.872;20.658;2023-06-10T05:19:12;537.90;2406.40
56436;DHT22;42335;44.872;20.658;2023-06-10T05:24:04;538.50;2406.40
56436;DHT22;42335;44.872;20.658;2023-06-10T05:26:30;538.20;2406.40
56436;DHT22;42335;44.872;20.658;2023-06-10T05:28:58;538.10;2406.40
56436;DHT22;42335;44.872;20.658;2023-06-10T05:31:24;538.10;2406.40
56436;DHT22;42335;44.872;20.658;2023-06-10T05:33:50;538.20;2406.40
56436;DHT22;42335;44.872;20.658;2023-06-10T05:36:15;538.20;2406.40
56436;DHT22;42335;44.872;20.658;2023-06-10T05:38:41;538.30;2406.40
56436;DHT22;42335;44.872;20.658;2023-06-10T05:41:07;538.20;2406.40
56436;DHT22;42335;44.872;20.658;2023-06-10T05:43:32;538.30;2406.40
56436;DHT22;42335;44.872;20.658;2023-06-10T05:45:58;538.30;2406.40
56436;DHT22;42335;44.872;20.658;2023-06-10T05:48:24;538.30;2406.40
56436;DHT22;42335;44.872;20.658;2023-06-10T05:50:50;538.40;2406.40
56436;DHT22;42335;44.872;20.658;2023-06-10T05:53:15;538.40;2406.40
56436;DHT22;42335;44.872;20.658;2023-06-10T05:55:43;538.50;2406.40
56436;DHT22;42335;44.872;20.658;2023-06-10T05:58:09;538.50;2406.40
56436;DHT22;42335;44.872;20.658;2023-06-10T06:00:35;563.20;2432.00
56436;DHT22;42335;44.872;20.658;2023-06-10T06:03:00;563.20;2432.00
56436;DHT22;42335;44.872;20.658;2023-06-10T06:05:26;563.30;2432.00
56436;DHT22;42335;44.872;20.658;2023-06-10T06:07:52;563.30;2432.00
56436;DHT22;42335;44.872;20.658;2023-06-10T06:10:18;563.50;2432.00
56436;DHT22;42335;44.872;20.658;2023-06-10T06:12:44;563.40;2432.00
56436;DHT22;42335;44.872;20.658;2023-06-10T06:15:11;563.40;2432.00
56436;DHT22;42335;44.872;20.658;2023-06-10T06:17:36;563.40;2432.00
56436;DHT22;42335;44.872;20.658;2023-06-10T06:20:03;563.40;2432.00
56436;DHT22;42335;44.872;20.658;2023-06-10T06:22:29;563.40;2432.00
56436;DHT22;42335;44.872;20.658;2023-06-10T06:24:55;563.50;2432.00
56436;DHT22;42335;44.872;20.658;2023-06-10T06:27:21;563.40;2432.00
56436;DHT22;42335;44.872;20.658;2023-06-10T06:29:47;563.50;2432.00
56436;DHT22;42335;44.872;20.658;2023-06-10T06:32:13;563.40;2432.00
56436;DHT22;42335;44.872;20.658;2023-06-10T06:34:38;563.40;2432.00
56436;DHT22;42335;44.872;20.658;2023-06-10T06:37:04;563.40;2432.00
56436;DHT22;42335;44.872;20.658;2023-06-10T06:39:30;563.50;2432.00
56436;DHT22;42335;44.872;20.658;2023-06-10T06:41:56;563.40;2432.00
56436;DHT22;42335;44.872;20.658;2023-06-10T06:44:21;563.60;2432.00
56436;DHT22;42335;44.872;20.658;2023-06-10T06:46:47;563.80;2432.00
56436;DHT22;42335;44.872;20.658;2023-06-10T06:49:13;563.90;2432.00
56436;DHT22;42335;44.872;20.658;2023-06-10T06:51:38;563.80;2432.00
56436;DHT22;42335;44.872;20.658;2023-06-10T06:54:04;563.80;2432.00
56436;DHT22;42335;44.872;20.658;2023-06-10T06:56:31;563.90;2432.00
56436;DHT22;42335;44.872;20.658;2023-06-10T06:58:56;563.90;2432.00
56436;DHT22;42335;44.872;20.658;2023-06-10T07:01:22;564.00;2432.00
56436;DHT22;42335;44.872;20.658;2023-06-10T07:03:48;563.90;2432.00
56436;DHT22;42335;44.872;20.658;2023-06-10T07:06:14;563.90;2432.00
56436;DHT22;42335;44.872;20.658;2023-06-10T07:08:39;564.00;2432.00
56436;DHT22;42335;44.872;20.658;2023-06-10T07:11:05;564.00;2432.00
56436;DHT22;42335;44.872;20.658;2023-06-10T07:13:31;564.00;2432.00
56436;DHT22;42335;44.872;20.658;2023-06-10T07:15:57;564.00;2432.00
56436;DHT22;42335;44.872;20.658;2023-06-10T07:18:22;564.00;2432.00
56436;DHT22;42335;44.872;20.658;2023-06-10T07:20:48;563.90;2432.00
56436;DHT22;42335;44.872;20.658;2023-06-10T07:23:14;563.90;2432.00
56436;DHT22;42335;44.872;20.658;2023-06-10T07:25:41;564.00;2432.00
56436;DHT22;42335;44.872;20.658;2023-06-10T07:28:07;588.90;2432.00
56436;DHT22;42335;44.872;20.658;2023-06-10T07:30:33;589.00;2432.00
56436;DHT22;42335;44.872;20.658;2023-06-10T07:32:58;589.20;2432.00
56436;DHT22;42335;44.872;20.658;2023-06-10T07:35:24;589.10;2432.00
56436;DHT22;42335;44.872;20.658;2023-06-10T07:37:50;589.30;2432.00
56436;DHT22;42335;44.872;20.658;2023-06-10T07:40:16;589.40;2432.00
56436;DHT22;42335;44.872;20.658;2023-06-10T07:42:41;589.50;2432.00
56436;DHT22;42335;44.872;20.658;2023-06-10T07:45:08;589.60;2432.00
56436;DHT22;42335;44.872;20.658;2023-06-10T07:47:35;614.40;2432.00
56436;DHT22;42335;44.872;20.658;2023-06-10T07:50:00;589.70;2432.00
56436;DHT22;42335;44.872;20.658;2023-06-10T07:52:26;614.50;2432.00
56436;DHT22;42335;44.872;20.658;2023-06-10T07:54:54;589.70;2432.00
56436;DHT22;42335;44.872;20.658;2023-06-10T07:57:19;614.50;2432.00
56436;DHT22;42335;44.872;20.658;2023-06-10T08:16:48;640.60;2432.00
56436;DHT22;42335;44.872;20.658;2023-06-10T08:19:13;640.60;2432.00
56436;DHT22;42335;44.872;20.658;2023-06-10T08:21:39;640.70;2432.00
56436;DHT22;42335;44.872;20.658;2023-06-10T08:24:09;640.90;2432.00
56436;DHT22;42335;44.872;20.658;2023-06-10T08:26:35;665.60;2432.00
56436;DHT22;42335;44.872;20.658;2023-06-10T08:29:01;665.60;2432.00
56436;DHT22;42335;44.872;20.658;2023-06-10T08:31:27;665.90;2432.00
56436;DHT22;42335;44.872;20.658;2023-06-10T08:33:52;666.00;2432.00
56436;DHT22;42335;44.872;20.658;2023-06-10T08:36:18;666.20;2432.00
56436;DHT22;42335;44.872;20.658;2023-06-10T08:38:44;666.20;2432.00
56436;DHT22;42335;44.872;20.658;2023-06-10T08:46:23;691.30;2432.00
56436;DHT22;42335;44.872;20.658;2023-06-10T08:48:53;691.20;2432.00
56436;DHT22;42335;44.872;20.658;2023-06-10T08:56:25;691.60;2432.00
56436;DHT22;42335;44.872;20.658;2023-06-10T08:58:52;691.30;2432.00
56436;DHT22;42335;44.872;20.658;2023-06-10T09:01:18;691.30;2432.00
56436;DHT22;42335;44.872;20.658;2023-06-10T09:03:44;691.30;2432.00
56436;DHT22;42335;44.872;20.658;2023-06-10T09:06:10;691.40;2432.00
56436;DHT22;42335;44.872;20.658;2023-06-10T09:08:36;691.30;2432.00
56436;DHT22;42335;44.872;20.658;2023-06-10T09:11:02;691.40;2432.00
56436;DHT22;42335;44.872;20.658;2023-06-10T09:13:29;691.60;2432.00
56436;DHT22;42335;44.872;20.658;2023-06-10T09:15:55;691.50;2432.00
56436;DHT22;42335;44.872;20.658;2023-06-10T09:18:22;691.70;2432.00
56436;DHT22;42335;44.872;20.658;2023-06-10T09:20:48;691.80;2432.00
56436;DHT22;42335;44.872;20.658;2023-06-10T09:23:15;691.70;2432.00
56436;DHT22;42335;44.872;20.658;2023-06-10T09:25:41;691.60;2380.80
56436;DHT22;42335;44.872;20.658;2023-06-10T09:28:14;691.60;2329.60
56436;DHT22;42335;44.872;20.658;2023-06-10T09:30:40;691.60;2329.60
56436;DHT22;42335;44.872;20.658;2023-06-10T09:33:11;691.80;2278.40
56436;DHT22;42335;44.872;20.658;2023-06-10T09:35:48;691.90;2252.80
56436;DHT22;42335;44.872;20.658;2023-06-10T09:38:21;692.10;2227.20
56436;DHT22;42335;44.872;20.658;2023-06-10T09:40:51;691.80;2252.80
56436;DHT22;42335;44.872;20.658;2023-06-10T09:43:17;691.80;2201.60
56436;DHT22;42335;44.872;20.658;2023-06-10T09:45:43;691.80;2201.60
56436;DHT22;42335;44.872;20.658;2023-06-10T09:48:09;691.80;2176.00
56436;DHT22;42335;44.872;20.658;2023-06-10T09:50:34;691.80;2176.00
56436;DHT22;42335;44.872;20.658;2023-06-10T09:53:06;691.80;2227.20
56436;DHT22;42335;44.872;20.658;2023-06-10T09:55:33;691.80;2227.20
56436;DHT22;42335;44.872;20.658;2023-06-10T09:57:59;691.80;2227.20
56436;DHT22;42335;44.872;20.658;2023-06-10T10:00:25;691.90;2227.20
56436;DHT22;42335;44.872;20.658;2023-06-10T10:02:52;691.90;2201.60
56436;DHT22;42335;44.872;20.658;2023-06-10T10:05:20;692.10;2176.00
56436;DHT22;42335;44.872;20.658;2023-06-10T10:07:46;692.10;2176.00
56436;DHT22;42335;44.872;20.658;2023-06-10T10:10:13;692.10;2150.40
56436;DHT22;42335;44.872;20.658;2023-06-10T10:12:40;691.90;2176.00
56436;DHT22;42335;44.872;20.658;2023-06-10T10:15:10;692.10;2176.00
56436;DHT22;42335;44.872;20.658;2023-06-10T10:18:14;692.10;2176.00
56436;DHT22;42335;44.872;20.658;2023-06-10T10:20:47;716.80;2124.80
56436;DHT22;42335;44.872;20.658;2023-06-10T10:23:21;716.90;2124.80
56436;DHT22;42335;44.872;20.658;2023-06-10T10:25:52;717.10;2124.80
56436;DHT22;42335;44.872;20.658;2023-06-10T10:28:21;717.10;2099.20
56436;DHT22;42335;44.872;20.658;2023-06-10T10:30:52;717.10;2124.80
56436;DHT22;42335;44.872;20.658;2023-06-10T10:33:28;717.20;2124.80
56436;DHT22;42335;44.872;20.658;2023-06-10T10:35:58;717.20;2124.80
56436;DHT22;42335;44.872;20.658;2023-06-10T10:38:26;717.20;2073.60
56436;DHT22;42335;44.872;20.658;2023-06-10T10:40:53;717.30;2073.60
56436;DHT22;42335;44.872;20.658;2023-06-10T10:43:21;717.30;2048.00
56436;DHT22;42335;44.872;20.658;2023-06-10T10:45:58;717.40;2073.60
56436;DHT22;42335;44.872;20.658;2023-06-10T10:48:24;717.70;2073.60
56436;DHT22;42335;44.872;20.658;2023-06-10T10:50:57;717.70;2048.00
56436;DHT22;42335;44.872;20.658;2023-06-10T10:56:13;742.50;2022.40
56436;DHT22;42335;44.872;20.658;2023-06-10T10:58:39;717.70;2022.40
56436;DHT22;42335;44.872;20.658;2023-06-10T11:01:13;742.50;2022.40
56436;DHT22;42335;44.872;20.658;2023-06-10T11:03:44;742.50;1996.80
56436;DHT22;42335;44.872;20.658;2023-06-10T11:06:13;742.80;1945.60
56436;DHT22;42335;44.872;20.658;2023-06-10T11:16:30;742.80;1868.80
56436;DHT22;42335;44.872;20.658;2023-06-10T11:18:56;742.70;1868.80
56436;DHT22;42335;44.872;20.658;2023-06-10T11:21:25;742.70;1920.00
56436;DHT22;42335;44.872;20.658;2023-06-10T11:23:51;742.80;1894.40
56436;DHT22;42335;44.872;20.658;2023-06-10T11:26:20;743.00;1868.80
56436;DHT22;42335;44.872;20.658;2023-06-10T11:31:24;742.90;1843.20
56436;DHT22;42335;44.872;20.658;2023-06-10T11:33:54;743.00;1817.60
56436;DHT22;42335;44.872;20.658;2023-06-10T11:36:20;742.90;1843.20
56436;DHT22;42335;44.872;20.658;2023-06-10T11:41:12;768.10;1843.20
56436;DHT22;42335;44.872;20.658;2023-06-10T12:10:53;768.60;1638.40
56436;DHT22;42335;44.872;20.658;2023-06-10T12:13:20;768.40;1715.20
56436;DHT22;42335;44.872;20.658;2023-06-10T12:15:46;768.40;1664.00
56436;DHT22;42335;44.872;20.658;2023-06-10T12:18:22;768.40;1664.00
56436;DHT22;42335;44.872;20.658;2023-06-10T12:20:49;768.40;1689.60
56436;DHT22;42335;44.872;20.658;2023-06-10T12:23:17;768.40;1689.60
56436;DHT22;42335;44.872;20.658;2023-06-10T12:25:55;768.50;1664.00
56436;DHT22;42335;44.872;20.658;2023-06-10T12:28:25;768.50;1689.60
56436;DHT22;42335;44.872;20.658;2023-06-10T12:30:52;768.50;1689.60
56436;DHT22;42335;44.872;20.658;2023-06-10T12:33:31;768.60;1664.00
56436;DHT22;42335;44.872;20.658;2023-06-10T21:28:06;589.60;2432.00
56436;DHT22;42335;44.872;20.658;2023-06-10T21:30:31;589.30;2432.00
56436;DHT22;42335;44.872;20.658;2023-06-10T21:32:57;589.20;2432.00
56436;DHT22;42335;44.872;20.658;2023-06-10T21:35:23;589.10;2432.00
56436;DHT22;42335;44.872;20.658;2023-06-10T22:29:01;589.00;2432.00
56436;DHT22;42335;44.872;20.658;2023-06-10T22:31:27;564.10;2432.00
56436;DHT22;42335;44.872;20.658;2023-06-10T22:36:21;588.90;2432.00
56436;DHT22;42335;44.872;20.658;2023-06-10T22:38:46;564.10;2432.00
56436;DHT22;42335;44.872;20.658;2023-06-10T22:41:12;564.10;2432.00
56436;DHT22;42335;44.872;20.658;2023-06-10T22:43:38;563.90;2432.00
56436;DHT22;42335;44.872;20.658;2023-06-10T22:46:04;563.90;2432.00
56436;DHT22;42335;44.872;20.658;2023-06-10T22:48:30;564.00;2432.00
56436;DHT22;42335;44.872;20.658;2023-06-10T22:50:57;563.90;2432.00
56436;DHT22;42335;44.872;20.658;2023-06-10T22:53:23;564.10;2432.00
56436;DHT22;42335;44.872;20.658;2023-06-10T22:55:49;563.90;2432.00
56436;DHT22;42335;44.872;20.658;2023-06-10T22:58:15;563.80;2432.00
56436;DHT22;42335;44.872;20.658;2023-06-10T23:00:40;563.80;2432.00
56436;DHT22;42335;44.872;20.658;2023-06-10T23:03:06;563.70;2432.00
56436;DHT22;42335;44.872;20.658;2023-06-10T23:05:32;563.70;2432.00
56436;DHT22;42335;44.872;20.658;2023-06-10T23:07:57;563.70;2432.00
56436;DHT22;42335;44.872;20.658;2023-06-10T23:10:23;563.70;2432.00
56436;DHT22;42335;44.872;20.658;2023-06-10T23:12:48;563.70;2432.00
56436;DHT22;42335;44.872;20.658;2023-06-10T23:15:14;563.70;2432.00
56436;DHT22;42335;44.872;20.658;2023-06-10T23:17:40;563.60;2432.00
56436;DHT22;42335;44.872;20.658;2023-06-10T23:20:11;563.60;2432.00
56436;DHT22;42335;44.872;20.658;2023-06-10T23:22:37;563.60;2432.00
56436;DHT22;42335;44.872;20.658;2023-06-10T23:25:06;563.60;2432.00
56436;DHT22;42335;44.872;20.658;2023-06-10T23:27:31;563.60;2432.00
56436;DHT22;42335;44.872;20.658;2023-06-10T23:29:57;563.60;2432.00
56436;DHT22;42335;44.872;20.658;2023-06-10T23:32:23;563.50;2432.00
56436;DHT22;42335;44.872;20.658;2023-06-10T23:34:49;563.60;2432.00
56436;DHT22;42335;44.872;20.658;2023-06-10T23:37:15;563.60;2432.00
56436;DHT22;42335;44.872;20.658;2023-06-10T23:39:41;563.50;2432.00
56436;DHT22;42335;44.872;20.658;2023-06-10T23:42:10;563.50;2432.00
56436;DHT22;42335;44.872;20.658;2023-06-10T23:44:35;563.50;2432.00
56436;DHT22;42335;44.872;20.658;2023-06-10T23:47:01;563.40;2432.00
56436;DHT22;42335;44.872;20.658;2023-06-10T23:49:27;563.40;2432.00
56436;DHT22;42335;44.872;20.658;2023-06-10T23:51:52;563.70;2432.00
56436;DHT22;42335;44.872;20.658;2023-06-10T23:54:18;563.60;2432.00
56436;DHT22;42335;44.872;20.658;2023-06-10T23:59:10;563.80;2432.00
